sensor_id;sensor_type;location;lat;lon;timestamp;pressure;altitude;pressure_sealevel;temperature
62706;BMP280;51050;51.784;9.372;2022-10-16T00:00:12;99995.34;;;16.92
62706;BMP280;51050;51.784;9.372;2022-10-16T00:02:37;99991.75;;;16.92
62706;BMP280;51050;51.784;9.372;2022-10-16T00:05:03;99995.34;;;16.92
62706;BMP280;51050;51.784;9.372;2022-10-16T00:07:28;100000.88;;;16.92
62706;BMP280;51050;51.784;9.372;2022-10-16T00:09:53;99997.28;;;16.92
62706;BMP280;51050;51.784;9.372;2022-10-16T00:12:18;100002.81;;;16.92
62706;BMP280;51050;51.784;9.372;2022-10-16T00:14:44;99990.13;;;16.91
62706;BMP280;51050;51.784;9.372;2022-10-16T00:17:09;99995.66;;;16.91
62706;BMP280;51050;51.784;9.372;2022-10-16T00:19:34;99994.84;;;16.90
62706;BMP280;51050;51.784;9.372;2022-10-16T00:21:59;100001.53;;;16.89
62706;BMP280;51050;51.784;9.372;2022-10-16T00:24:24;99999.09;;;16.88
62706;BMP280;51050;51.784;9.372;2022-10-16T00:26:49;99997.13;;;16.88
62706;BMP280;51050;51.784;9.372;2022-10-16T00:29:15;99999.09;;;16.88
62706;BMP280;51050;51.784;9.372;2022-10-16T00:31:40;100008.19;;;16.88
62706;BMP280;51050;51.784;9.372;2022-10-16T00:34:05;99999.91;;;16.88
62706;BMP280;51050;51.784;9.372;2022-10-16T00:36:30;100007.72;;;16.86
62706;BMP280;51050;51.784;9.372;2022-10-16T00:38:57;100009.34;;;16.87
62706;BMP280;51050;51.784;9.372;2022-10-16T00:41:24;100012.09;;;16.87
62706;BMP280;51050;51.784;9.372;2022-10-16T00:43:51;99999.41;;;16.86
62706;BMP280;51050;51.784;9.372;2022-10-16T00:48:49;100000.56;;;16.85
62706;BMP280;51050;51.784;9.372;2022-10-16T00:51:16;100008.84;;;16.85
62706;BMP280;51050;51.784;9.372;2022-10-16T00:53:43;99999.75;;;16.85
62706;BMP280;51050;51.784;9.372;2022-10-16T00:56:09;99999.75;;;16.85
62706;BMP280;51050;51.784;9.372;2022-10-16T00:58:34;99990.63;;;16.84
62706;BMP280;51050;51.784;9.372;2022-10-16T01:00:59;100007.22;;;16.84
62706;BMP280;51050;51.784;9.372;2022-10-16T01:03:31;99996.53;;;16.83
62706;BMP280;51050;51.784;9.372;2022-10-16T01:06:05;99997.34;;;16.83
62706;BMP280;51050;51.784;9.372;2022-10-16T01:08:44;100010.34;;;16.83
62706;BMP280;51050;51.784;9.372;2022-10-16T01:11:14;100013.13;;;16.83
62706;BMP280;51050;51.784;9.372;2022-10-16T01:13:42;100014.25;;;16.82
62706;BMP280;51050;51.784;9.372;2022-10-16T01:18:43;100002.38;;;16.81
62706;BMP280;51050;51.784;9.372;2022-10-16T01:21:16;100004.34;;;16.81
62706;BMP280;51050;51.784;9.372;2022-10-16T01:28:47;100008.25;;;16.80
62706;BMP280;51050;51.784;9.372;2022-10-16T01:31:15;100010.19;;;16.79
62706;BMP280;51050;51.784;9.372;2022-10-16T01:33:42;100001.91;;;16.79
62706;BMP280;51050;51.784;9.372;2022-10-16T01:36:12;99994.66;;;16.66
62706;BMP280;51050;51.784;9.372;2022-10-16T01:38:39;100012.97;;;16.79
62706;BMP280;51050;51.784;9.372;2022-10-16T01:41:07;100016.84;;;16.78
62706;BMP280;51050;51.784;9.372;2022-10-16T01:43:35;100016.84;;;16.78
62706;BMP280;51050;51.784;9.372;2022-10-16T01:46:02;100027.91;;;16.78
62706;BMP280;51050;51.784;9.372;2022-10-16T01:48:28;100028.25;;;16.77
62706;BMP280;51050;51.784;9.372;2022-10-16T01:50:57;100031.00;;;16.77
62706;BMP280;51050;51.784;9.372;2022-10-16T01:53:24;100024.66;;;16.76
62706;BMP280;51050;51.784;9.372;2022-10-16T01:55:50;100035.72;;;16.76
62706;BMP280;51050;51.784;9.372;2022-10-16T01:58:17;100035.72;;;16.76
62706;BMP280;51050;51.784;9.372;2022-10-16T02:00:43;100035.72;;;16.76
62706;BMP280;51050;51.784;9.372;2022-10-16T02:03:09;100041.25;;;16.76
62706;BMP280;51050;51.784;9.372;2022-10-16T02:05:40;100049.53;;;16.76
62706;BMP280;51050;51.784;9.372;2022-10-16T02:08:06;100050.72;;;16.75
62706;BMP280;51050;51.784;9.372;2022-10-16T02:10:31;100049.09;;;16.74
62706;BMP280;51050;51.784;9.372;2022-10-16T02:13:04;100047.13;;;16.75
62706;BMP280;51050;51.784;9.372;2022-10-16T02:15:31;100053.81;;;16.74
62706;BMP280;51050;51.784;9.372;2022-10-16T02:17:56;100055.75;;;16.73
62706;BMP280;51050;51.784;9.372;2022-10-16T02:20:22;100056.56;;;16.74
62706;BMP280;51050;51.784;9.372;2022-10-16T02:22:50;100063.22;;;16.73
62706;BMP280;51050;51.784;9.372;2022-10-16T02:25:19;100058.03;;;16.71
62706;BMP280;51050;51.784;9.372;2022-10-16T02:27:57;100057.72;;;16.73
62706;BMP280;51050;51.784;9.372;2022-10-16T02:33:10;100053.31;;;16.72
62706;BMP280;51050;51.784;9.372;2022-10-16T02:35:36;100043.41;;;16.71
62706;BMP280;51050;51.784;9.372;2022-10-16T02:38:01;100042.59;;;16.70
62706;BMP280;51050;51.784;9.372;2022-10-16T02:40:27;100058.34;;;16.70
62706;BMP280;51050;51.784;9.372;2022-10-16T02:42:53;100055.28;;;16.71
62706;BMP280;51050;51.784;9.372;2022-10-16T02:45:19;100048.94;;;16.71
62706;BMP280;51050;51.784;9.372;2022-10-16T02:47:44;100048.13;;;16.70
62706;BMP280;51050;51.784;9.372;2022-10-16T02:50:09;100045.69;;;16.69
62706;BMP280;51050;51.784;9.372;2022-10-16T02:52:34;100040.97;;;16.69
62706;BMP280;51050;51.784;9.372;2022-10-16T02:54:59;100044.06;;;16.68
62706;BMP280;51050;51.784;9.372;2022-10-16T02:57:25;100040.16;;;16.69
62706;BMP280;51050;51.784;9.372;2022-10-16T02:59:50;100042.91;;;16.69
62706;BMP280;51050;51.784;9.372;2022-10-16T03:02:15;100033.81;;;16.68
62706;BMP280;51050;51.784;9.372;2022-10-16T03:04:40;100038.53;;;16.68
62706;BMP280;51050;51.784;9.372;2022-10-16T03:07:05;100046.81;;;16.68
62706;BMP280;51050;51.784;9.372;2022-10-16T03:09:31;100051.56;;;16.67
62706;BMP280;51050;51.784;9.372;2022-10-16T03:11:56;100053.50;;;16.67
62706;BMP280;51050;51.784;9.372;2022-10-16T03:14:21;100036.94;;;16.67
62706;BMP280;51050;51.784;9.372;2022-10-16T03:16:46;100040.03;;;16.65
62706;BMP280;51050;51.784;9.372;2022-10-16T03:19:11;100041.66;;;16.66
62706;BMP280;51050;51.784;9.372;2022-10-16T03:21:36;100044.75;;;16.64
62706;BMP280;51050;51.784;9.372;2022-10-16T03:24:02;100051.88;;;16.66
62706;BMP280;51050;51.784;9.372;2022-10-16T03:26:27;100048.31;;;16.65
62706;BMP280;51050;51.784;9.372;2022-10-16T03:28:52;100041.16;;;16.64
62706;BMP280;51050;51.784;9.372;2022-10-16T03:31:17;100046.38;;;16.66
62706;BMP280;51050;51.784;9.372;2022-10-16T03:33:42;100050.25;;;16.64
62706;BMP280;51050;51.784;9.372;2022-10-16T03:36:07;100059.69;;;16.63
62706;BMP280;51050;51.784;9.372;2022-10-16T03:38:33;100067.97;;;16.63
62706;BMP280;51050;51.784;9.372;2022-10-16T03:40:58;100060.50;;;16.64
62706;BMP280;51050;51.784;9.372;2022-10-16T03:43:23;100052.53;;;16.62
62706;BMP280;51050;51.784;9.372;2022-10-16T03:45:49;100051.72;;;16.62
62706;BMP280;51050;51.784;9.372;2022-10-16T03:48:15;100060.03;;;16.62
62706;BMP280;51050;51.784;9.372;2022-10-16T03:50:40;100054.50;;;16.62
62706;BMP280;51050;51.784;9.372;2022-10-16T03:53:05;100052.53;;;16.62
62706;BMP280;51050;51.784;9.372;2022-10-16T03:55:30;100058.41;;;16.61
62706;BMP280;51050;51.784;9.372;2022-10-16T03:57:55;100065.84;;;16.60
62706;BMP280;51050;51.784;9.372;2022-10-16T04:00:21;100073.03;;;16.61
62706;BMP280;51050;51.784;9.372;2022-10-16T04:02:46;100060.31;;;16.60
62706;BMP280;51050;51.784;9.372;2022-10-16T04:05:11;100069.44;;;16.61
62706;BMP280;51050;51.784;9.372;2022-10-16T04:07:36;100059.50;;;16.60
62706;BMP280;51050;51.784;9.372;2022-10-16T04:10:02;100070.56;;;16.60
62706;BMP280;51050;51.784;9.372;2022-10-16T04:12:27;100068.94;;;16.59
62706;BMP280;51050;51.784;9.372;2022-10-16T04:14:53;100079.19;;;16.58
62706;BMP280;51050;51.784;9.372;2022-10-16T04:17:18;100072.88;;;16.58
62706;BMP280;51050;51.784;9.372;2022-10-16T04:19:43;100081.97;;;16.58
62706;BMP280;51050;51.784;9.372;2022-10-16T04:22:08;100085.50;;;16.59
62706;BMP280;51050;51.784;9.372;2022-10-16T04:24:33;100072.06;;;16.57
62706;BMP280;51050;51.784;9.372;2022-10-16T04:26:59;100078.38;;;16.58
62706;BMP280;51050;51.784;9.372;2022-10-16T04:29:24;100077.56;;;16.57
62706;BMP280;51050;51.784;9.372;2022-10-16T04:31:49;100069.28;;;16.57
62706;BMP280;51050;51.784;9.372;2022-10-16T04:34:14;100071.25;;;16.57
62706;BMP280;51050;51.784;9.372;2022-10-16T04:36:39;100072.06;;;16.57
62706;BMP280;51050;51.784;9.372;2022-10-16T04:39:04;100067.66;;;16.56
62706;BMP280;51050;51.784;9.372;2022-10-16T04:41:29;100055.78;;;16.56
62706;BMP280;51050;51.784;9.372;2022-10-16T04:43:55;100064.09;;;16.56
62706;BMP280;51050;51.784;9.372;2022-10-16T04:46:20;100065.22;;;16.55
62706;BMP280;51050;51.784;9.372;2022-10-16T04:48:45;100071.56;;;16.55
62706;BMP280;51050;51.784;9.372;2022-10-16T04:51:11;100097.25;;;16.56
62706;BMP280;51050;51.784;9.372;2022-10-16T04:53:36;100096.44;;;16.55
62706;BMP280;51050;51.784;9.372;2022-10-16T04:56:02;100097.25;;;16.56
62706;BMP280;51050;51.784;9.372;2022-10-16T04:58:27;100094.00;;;16.54
62706;BMP280;51050;51.784;9.372;2022-10-16T05:00:52;100094.47;;;16.56
62706;BMP280;51050;51.784;9.372;2022-10-16T05:03:17;100086.50;;;16.54
62706;BMP280;51050;51.784;9.372;2022-10-16T05:05:46;100090.09;;;16.55
62706;BMP280;51050;51.784;9.372;2022-10-16T05:08:11;100085.69;;;16.54
62706;BMP280;51050;51.784;9.372;2022-10-16T05:10:37;100101.97;;;16.55
62706;BMP280;51050;51.784;9.372;2022-10-16T05:13:02;100103.09;;;16.54
62706;BMP280;51050;51.784;9.372;2022-10-16T05:15:27;100107.81;;;16.54
62706;BMP280;51050;51.784;9.372;2022-10-16T05:17:53;100105.84;;;16.54
62706;BMP280;51050;51.784;9.372;2022-10-16T05:20:19;100103.41;;;16.53
62706;BMP280;51050;51.784;9.372;2022-10-16T05:22:44;100099.84;;;16.52
62706;BMP280;51050;51.784;9.372;2022-10-16T05:25:09;100099.84;;;16.52
62706;BMP280;51050;51.784;9.372;2022-10-16T05:27:34;100115.59;;;16.52
62706;BMP280;51050;51.784;9.372;2022-10-16T05:29:59;100120.00;;;16.53
62706;BMP280;51050;51.784;9.372;2022-10-16T05:32:24;100122.75;;;16.53
62706;BMP280;51050;51.784;9.372;2022-10-16T05:34:50;100131.03;;;16.53
62706;BMP280;51050;51.784;9.372;2022-10-16T05:37:15;100134.94;;;16.52
62706;BMP280;51050;51.784;9.372;2022-10-16T05:39:40;100138.53;;;16.52
62706;BMP280;51050;51.784;9.372;2022-10-16T05:42:05;100140.47;;;16.52
62706;BMP280;51050;51.784;9.372;2022-10-16T05:44:31;100152.34;;;16.52
62706;BMP280;51050;51.784;9.372;2022-10-16T05:46:56;100139.66;;;16.51
62706;BMP280;51050;51.784;9.372;2022-10-16T05:49:21;100131.38;;;16.51
62706;BMP280;51050;51.784;9.372;2022-10-16T05:51:46;100126.19;;;16.50
62706;BMP280;51050;51.784;9.372;2022-10-16T05:54:11;100125.03;;;16.51
62706;BMP280;51050;51.784;9.372;2022-10-16T05:56:37;100134.50;;;16.50
62706;BMP280;51050;51.784;9.372;2022-10-16T05:59:03;100145.53;;;16.50
62706;BMP280;51050;51.784;9.372;2022-10-16T06:01:28;100144.38;;;16.51
62706;BMP280;51050;51.784;9.372;2022-10-16T06:03:53;100138.84;;;16.51
62706;BMP280;51050;51.784;9.372;2022-10-16T06:06:19;100157.22;;;16.55
62706;BMP280;51050;51.784;9.372;2022-10-16T06:08:45;100159.16;;;16.55
62706;BMP280;51050;51.784;9.372;2022-10-16T06:11:12;100161.94;;;16.55
62706;BMP280;51050;51.784;9.372;2022-10-16T06:13:37;100168.59;;;16.54
62706;BMP280;51050;51.784;9.372;2022-10-16T06:16:04;100163.38;;;16.52
62706;BMP280;51050;51.784;9.372;2022-10-16T06:18:29;100163.38;;;16.52
62706;BMP280;51050;51.784;9.372;2022-10-16T06:20:55;100158.19;;;16.51
62706;BMP280;51050;51.784;9.372;2022-10-16T06:23:20;100176.38;;;16.52
62706;BMP280;51050;51.784;9.372;2022-10-16T06:25:45;100171.19;;;16.50
62706;BMP280;51050;51.784;9.372;2022-10-16T06:28:11;100177.53;;;16.51
62706;BMP280;51050;51.784;9.372;2022-10-16T06:30:36;100183.06;;;16.51
62706;BMP280;51050;51.784;9.372;2022-10-16T06:33:01;100185.00;;;16.50
62706;BMP280;51050;51.784;9.372;2022-10-16T06:35:26;100186.97;;;16.50
62706;BMP280;51050;51.784;9.372;2022-10-16T06:37:52;100209.88;;;16.50
62706;BMP280;51050;51.784;9.372;2022-10-16T06:40:17;100211.03;;;16.49
62706;BMP280;51050;51.784;9.372;2022-10-16T06:42:42;100214.59;;;16.50
62706;BMP280;51050;51.784;9.372;2022-10-16T06:45:08;100217.69;;;16.48
62706;BMP280;51050;51.784;9.372;2022-10-16T06:47:33;100213.78;;;16.49
62706;BMP280;51050;51.784;9.372;2022-10-16T06:49:58;100218.50;;;16.49
62706;BMP280;51050;51.784;9.372;2022-10-16T06:52:23;100235.09;;;16.49
62706;BMP280;51050;51.784;9.372;2022-10-16T06:54:49;100245.00;;;16.50
62706;BMP280;51050;51.784;9.372;2022-10-16T06:57:14;100235.09;;;16.49
62706;BMP280;51050;51.784;9.372;2022-10-16T06:59:39;100235.09;;;16.49
62706;BMP280;51050;51.784;9.372;2022-10-16T07:02:04;100232.31;;;16.49
62706;BMP280;51050;51.784;9.372;2022-10-16T07:04:30;100235.91;;;16.49
62706;BMP280;51050;51.784;9.372;2022-10-16T07:06:55;100239.47;;;16.50
62706;BMP280;51050;51.784;9.372;2022-10-16T07:09:20;100238.66;;;16.49
62706;BMP280;51050;51.784;9.372;2022-10-16T07:11:45;100241.44;;;16.49
62706;BMP280;51050;51.784;9.372;2022-10-16T07:14:17;100246.94;;;16.49
62706;BMP280;51050;51.784;9.372;2022-10-16T07:16:43;100263.34;;;16.46
62706;BMP280;51050;51.784;9.372;2022-10-16T07:19:08;100268.69;;;16.42
62706;BMP280;51050;51.784;9.372;2022-10-16T07:21:34;100263.84;;;16.39
62706;BMP280;51050;51.784;9.372;2022-10-16T07:24:00;100259.13;;;16.40
62706;BMP280;51050;51.784;9.372;2022-10-16T07:26:27;100259.47;;;16.38
62706;BMP280;51050;51.784;9.372;2022-10-16T07:28:52;100277.16;;;16.37
62706;BMP280;51050;51.784;9.372;2022-10-16T07:31:18;100288.53;;;16.36
62706;BMP280;51050;51.784;9.372;2022-10-16T07:33:44;100285.78;;;16.36
62706;BMP280;51050;51.784;9.372;2022-10-16T07:36:10;100280.25;;;16.36
62706;BMP280;51050;51.784;9.372;2022-10-16T07:38:35;100293.25;;;16.35
62706;BMP280;51050;51.784;9.372;2022-10-16T07:41:04;100303.66;;;16.38
62706;BMP280;51050;51.784;9.372;2022-10-16T07:43:29;100304.78;;;16.37
62706;BMP280;51050;51.784;9.372;2022-10-16T07:45:55;100294.88;;;16.36
62706;BMP280;51050;51.784;9.372;2022-10-16T07:48:20;100296.19;;;16.39
62706;BMP280;51050;51.784;9.372;2022-10-16T07:50:46;100288.22;;;16.37
62706;BMP280;51050;51.784;9.372;2022-10-16T07:53:11;100303.66;;;16.38
62706;BMP280;51050;51.784;9.372;2022-10-16T07:55:37;100295.69;;;16.37
62706;BMP280;51050;51.784;9.372;2022-10-16T07:58:02;100298.63;;;16.40
62706;BMP280;51050;51.784;9.372;2022-10-16T08:00:27;100314.38;;;16.40
62706;BMP280;51050;51.784;9.372;2022-10-16T08:02:52;100321.84;;;16.39
62706;BMP280;51050;51.784;9.372;2022-10-16T08:05:18;100320.72;;;16.40
62706;BMP280;51050;51.784;9.372;2022-10-16T08:07:47;100323.63;;;16.44
62706;BMP280;51050;51.784;9.372;2022-10-16T08:10:16;100307.72;;;16.41
62706;BMP280;51050;51.784;9.372;2022-10-16T08:12:42;100319.91;;;16.40
62706;BMP280;51050;51.784;9.372;2022-10-16T08:15:07;100321.03;;;16.39
62706;BMP280;51050;51.784;9.372;2022-10-16T08:17:32;100327.88;;;16.41
62706;BMP280;51050;51.784;9.372;2022-10-16T08:19:58;100336.16;;;16.41
62706;BMP280;51050;51.784;9.372;2022-10-16T08:22:23;100333.41;;;16.41
62706;BMP280;51050;51.784;9.372;2022-10-16T08:24:48;100342.47;;;16.42
62706;BMP280;51050;51.784;9.372;2022-10-16T08:27:13;100335.81;;;16.43
62706;BMP280;51050;51.784;9.372;2022-10-16T08:29:38;100337.75;;;16.42
62706;BMP280;51050;51.784;9.372;2022-10-16T08:32:03;100336.16;;;16.41
62706;BMP280;51050;51.784;9.372;2022-10-16T08:34:29;100342.97;;;16.44
62706;BMP280;51050;51.784;9.372;2022-10-16T08:36:54;100343.47;;;16.46
62706;BMP280;51050;51.784;9.372;2022-10-16T08:39:20;100353.38;;;16.47
62706;BMP280;51050;51.784;9.372;2022-10-16T08:44:42;100350.63;;;16.47
62706;BMP280;51050;51.784;9.372;2022-10-16T08:47:18;100359.72;;;16.47
62706;BMP280;51050;51.784;9.372;2022-10-16T08:49:59;100362.81;;;16.46
62706;BMP280;51050;51.784;9.372;2022-10-16T08:52:28;100373.84;;;16.46
62706;BMP280;51050;51.784;9.372;2022-10-16T08:54:54;100379.69;;;16.44
62706;BMP280;51050;51.784;9.372;2022-10-16T08:57:20;100375.63;;;16.42
62706;BMP280;51050;51.784;9.372;2022-10-16T08:59:46;100382.47;;;16.44
62706;BMP280;51050;51.784;9.372;2022-10-16T09:02:23;100381.97;;;16.42
62706;BMP280;51050;51.784;9.372;2022-10-16T09:12:24;100390.25;;;16.42
62706;BMP280;51050;51.784;9.372;2022-10-16T09:17:25;100400.69;;;16.45
62706;BMP280;51050;51.784;9.372;2022-10-16T09:19:57;100394.34;;;16.45
62706;BMP280;51050;51.784;9.372;2022-10-16T09:22:25;100407.00;;;16.46
62706;BMP280;51050;51.784;9.372;2022-10-16T09:24:51;100405.88;;;16.47
62706;BMP280;51050;51.784;9.372;2022-10-16T09:27:16;100405.88;;;16.47
62706;BMP280;51050;51.784;9.372;2022-10-16T09:29:42;100413.66;;;16.45
62706;BMP280;51050;51.784;9.372;2022-10-16T09:32:10;100410.59;;;16.46
62706;BMP280;51050;51.784;9.372;2022-10-16T09:34:36;100410.28;;;16.48
62706;BMP280;51050;51.784;9.372;2022-10-16T09:37:05;100416.63;;;16.48
62706;BMP280;51050;51.784;9.372;2022-10-16T09:39:52;100416.63;;;16.48
62706;BMP280;51050;51.784;9.372;2022-10-16T09:42:18;100420.19;;;16.49
62706;BMP280;51050;51.784;9.372;2022-10-16T09:44:48;100412.72;;;16.49
62706;BMP280;51050;51.784;9.372;2022-10-16T09:47:16;100419.84;;;16.50
62706;BMP280;51050;51.784;9.372;2022-10-16T09:49:52;100422.28;;;16.52
62706;BMP280;51050;51.784;9.372;2022-10-16T09:52:18;100422.28;;;16.52
62706;BMP280;51050;51.784;9.372;2022-10-16T09:57:18;100428.31;;;16.54
62706;BMP280;51050;51.784;9.372;2022-10-16T09:59:47;100435.28;;;16.51
62706;BMP280;51050;51.784;9.372;2022-10-16T10:02:13;100442.44;;;16.52
62706;BMP280;51050;51.784;9.372;2022-10-16T10:04:40;100441.63;;;16.52
62706;BMP280;51050;51.784;9.372;2022-10-16T10:07:06;100434.81;;;16.49
62706;BMP280;51050;51.784;9.372;2022-10-16T10:09:42;100449.47;;;16.50
62706;BMP280;51050;51.784;9.372;2022-10-16T10:14:44;100432.53;;;16.51
62706;BMP280;51050;51.784;9.372;2022-10-16T10:17:12;100434.81;;;16.49
62706;BMP280;51050;51.784;9.372;2022-10-16T10:19:51;100433.34;;;16.52
62706;BMP280;51050;51.784;9.372;2022-10-16T10:27:20;100442.13;;;16.54
62706;BMP280;51050;51.784;9.372;2022-10-16T10:30:01;100442.63;;;16.56
62706;BMP280;51050;51.784;9.372;2022-10-16T10:32:35;100454.50;;;16.56
62706;BMP280;51050;51.784;9.372;2022-10-16T10:35:19;100465.25;;;16.58
62706;BMP280;51050;51.784;9.372;2022-10-16T10:38:01;100468.47;;;16.60
62706;BMP280;51050;51.784;9.372;2022-10-16T10:42:59;100464.63;;;16.61
62706;BMP280;51050;51.784;9.372;2022-10-16T10:45:28;100470.63;;;16.63
62706;BMP280;51050;51.784;9.372;2022-10-16T10:48:14;100470.63;;;16.63
62706;BMP280;51050;51.784;9.372;2022-10-16T10:56:14;100464.63;;;16.61
62706;BMP280;51050;51.784;9.372;2022-10-16T11:01:24;100461.31;;;16.59
62706;BMP280;51050;51.784;9.372;2022-10-16T11:06:36;100469.28;;;16.60
62706;BMP280;51050;51.784;9.372;2022-10-16T11:09:20;100466.25;;;16.62
62706;BMP280;51050;51.784;9.372;2022-10-16T11:11:50;100470.63;;;16.63
62706;BMP280;51050;51.784;9.372;2022-10-16T11:14:26;100471.47;;;16.63
62706;BMP280;51050;51.784;9.372;2022-10-16T11:21:55;100474.72;;;16.66
62706;BMP280;51050;51.784;9.372;2022-10-16T11:24:35;100484.97;;;16.65
62706;BMP280;51050;51.784;9.372;2022-10-16T11:27:04;100476.50;;;16.70
62706;BMP280;51050;51.784;9.372;2022-10-16T11:29:32;100481.72;;;16.80
62706;BMP280;51050;51.784;9.372;2022-10-16T11:32:00;100473.44;;;16.80
62706;BMP280;51050;51.784;9.372;2022-10-16T11:34:31;100474.88;;;16.78
62706;BMP280;51050;51.784;9.372;2022-10-16T11:39:26;100483.03;;;16.74
62706;BMP280;51050;51.784;9.372;2022-10-16T11:42:01;100486.59;;;16.75
62706;BMP280;51050;51.784;9.372;2022-10-16T11:44:37;100471.66;;;16.76
62706;BMP280;51050;51.784;9.372;2022-10-16T11:47:12;100462.19;;;16.77
62706;BMP280;51050;51.784;9.372;2022-10-16T11:49:39;100459.44;;;16.77
62706;BMP280;51050;51.784;9.372;2022-10-16T11:54:56;100469.03;;;16.79
62706;BMP280;51050;51.784;9.372;2022-10-16T11:57:25;100464.66;;;16.78
62706;BMP280;51050;51.784;9.372;2022-10-16T11:59:55;100461.88;;;16.78
62706;BMP280;51050;51.784;9.372;2022-10-16T12:07:27;100476.03;;;16.85
62706;BMP280;51050;51.784;9.372;2022-10-16T12:09:57;100466.31;;;16.96
62706;BMP280;51050;51.784;9.372;2022-10-16T12:12:26;100471.19;;;16.99
62706;BMP280;51050;51.784;9.372;2022-10-16T12:15:02;100479.00;;;16.97
62706;BMP280;51050;51.784;9.372;2022-10-16T12:17:34;100472.16;;;16.95
62706;BMP280;51050;51.784;9.372;2022-10-16T12:20:12;100479.16;;;16.92
62706;BMP280;51050;51.784;9.372;2022-10-16T12:22:53;100473.13;;;16.90
62706;BMP280;51050;51.784;9.372;2022-10-16T12:25:30;100479.81;;;16.89
62706;BMP280;51050;51.784;9.372;2022-10-16T12:28:15;100480.94;;;16.88
62706;BMP280;51050;51.784;9.372;2022-10-16T12:30:42;100476.53;;;16.87
62706;BMP280;51050;51.784;9.372;2022-10-16T12:33:21;100479.31;;;16.87
62706;BMP280;51050;51.784;9.372;2022-10-16T12:35:47;100481.25;;;16.87
62706;BMP280;51050;51.784;9.372;2022-10-16T12:38:16;100488.41;;;16.88
62706;BMP280;51050;51.784;9.372;2022-10-16T12:40:43;100491.50;;;16.86
62706;BMP280;51050;51.784;9.372;2022-10-16T12:43:25;100491.50;;;16.86
62706;BMP280;51050;51.784;9.372;2022-10-16T12:48:28;100493.13;;;16.87
62706;BMP280;51050;51.784;9.372;2022-10-16T12:50:54;100493.94;;;16.88
62706;BMP280;51050;51.784;9.372;2022-10-16T12:58:43;100509.72;;;16.87
62706;BMP280;51050;51.784;9.372;2022-10-16T13:01:26;100513.59;;;16.86
62706;BMP280;51050;51.784;9.372;2022-10-16T13:04:06;100512.47;;;16.87
62706;BMP280;51050;51.784;9.372;2022-10-16T13:06:42;100508.91;;;16.87
62706;BMP280;51050;51.784;9.372;2022-10-16T13:11:57;100523.53;;;16.87
62706;BMP280;51050;51.784;9.372;2022-10-16T13:14:35;100520.78;;;16.87
62706;BMP280;51050;51.784;9.372;2022-10-16T13:17:11;100518.00;;;16.87
62706;BMP280;51050;51.784;9.372;2022-10-16T13:19:43;100530.69;;;16.88
62706;BMP280;51050;51.784;9.372;2022-10-16T13:22:24;100526.31;;;16.87
62706;BMP280;51050;51.784;9.372;2022-10-16T13:25:15;100519.63;;;16.88
62706;BMP280;51050;51.784;9.372;2022-10-16T13:27:56;100539.00;;;16.88
62706;BMP280;51050;51.784;9.372;2022-10-16T13:30:30;100539.50;;;16.90
62706;BMP280;51050;51.784;9.372;2022-10-16T13:33:01;100534.78;;;16.91
62706;BMP280;51050;51.784;9.372;2022-10-16T13:35:27;100536.72;;;16.90
62706;BMP280;51050;51.784;9.372;2022-10-16T13:40:56;100548.28;;;16.92
62706;BMP280;51050;51.784;9.372;2022-10-16T13:43:34;100547.47;;;16.92
62706;BMP280;51050;51.784;9.372;2022-10-16T13:46:05;100547.47;;;16.92
62706;BMP280;51050;51.784;9.372;2022-10-16T13:48:31;100556.22;;;16.94
62706;BMP280;51050;51.784;9.372;2022-10-16T13:51:00;100559.81;;;16.94
62706;BMP280;51050;51.784;9.372;2022-10-16T13:53:26;100557.06;;;16.94
62706;BMP280;51050;51.784;9.372;2022-10-16T13:55:51;100553.16;;;16.95
62706;BMP280;51050;51.784;9.372;2022-10-16T13:58:16;100554.28;;;16.94
62706;BMP280;51050;51.784;9.372;2022-10-16T14:00:53;100556.72;;;16.96
62706;BMP280;51050;51.784;9.372;2022-10-16T14:03:19;100545.69;;;17.05
62706;BMP280;51050;51.784;9.372;2022-10-16T14:05:48;100559.72;;;17.17
62706;BMP280;51050;51.784;9.372;2022-10-16T14:08:14;100550.28;;;17.18
62706;BMP280;51050;51.784;9.372;2022-10-16T14:10:39;100551.59;;;17.29
62706;BMP280;51050;51.784;9.372;2022-10-16T14:13:05;100555.16;;;17.38
62706;BMP280;51050;51.784;9.372;2022-10-16T14:15:31;100561.19;;;17.40
62706;BMP280;51050;51.784;9.372;2022-10-16T14:17:57;100567.88;;;17.39
62706;BMP280;51050;51.784;9.372;2022-10-16T14:20:25;100560.88;;;17.42
62706;BMP280;51050;51.784;9.372;2022-10-16T14:22:59;100554.84;;;17.39
62706;BMP280;51050;51.784;9.372;2022-10-16T14:25:25;100552.59;;;17.42
62706;BMP280;51050;51.784;9.372;2022-10-16T14:28:01;100567.22;;;17.42
62706;BMP280;51050;51.784;9.372;2022-10-16T14:30:27;100548.69;;;17.86
62706;BMP280;51050;51.784;9.372;2022-10-16T14:32:57;100556.97;;;17.60
62706;BMP280;51050;51.784;9.372;2022-10-16T14:35:27;100554.53;;;17.41
62706;BMP280;51050;51.784;9.372;2022-10-16T14:37:54;100556.47;;;17.32
62706;BMP280;51050;51.784;9.372;2022-10-16T14:40:20;100562.97;;;17.27
62706;BMP280;51050;51.784;9.372;2022-10-16T14:42:47;100563.94;;;17.23
62706;BMP280;51050;51.784;9.372;2022-10-16T14:45:13;100565.91;;;17.22
62706;BMP280;51050;51.784;9.372;2022-10-16T14:47:47;100560.38;;;17.22
62706;BMP280;51050;51.784;9.372;2022-10-16T14:50:14;100562.63;;;17.20
62706;BMP280;51050;51.784;9.372;2022-10-16T14:52:39;100565.91;;;17.22
62706;BMP280;51050;51.784;9.372;2022-10-16T14:55:04;100564.59;;;17.28
62706;BMP280;51050;51.784;9.372;2022-10-16T14:57:31;100570.00;;;17.33
62706;BMP280;51050;51.784;9.372;2022-10-16T14:59:58;100566.25;;;17.38
62706;BMP280;51050;51.784;9.372;2022-10-16T15:04:48;100555.84;;;17.35
62706;BMP280;51050;51.784;9.372;2022-10-16T15:07:14;100546.38;;;17.36
62706;BMP280;51050;51.784;9.372;2022-10-16T15:09:39;100547.53;;;17.35
62706;BMP280;51050;51.784;9.372;2022-10-16T15:12:04;100550.94;;;17.32
62706;BMP280;51050;51.784;9.372;2022-10-16T15:14:29;100560.56;;;17.34
62706;BMP280;51050;51.784;9.372;2022-10-16T15:16:54;100563.78;;;17.36
62706;BMP280;51050;51.784;9.372;2022-10-16T15:19:19;100571.63;;;17.34